Time;durP1;ratioP1;P1;durP2;ratioP2;P2;SDS_P1;SDS_P2;PMS_P1;PMS_P2;Temp;Humidity;BMP_temperature;BMP_pressure;BME280_temperature;BME280_humidity;BME280_pressure;Samples;Min_cycle;Max_cycle;Signal;HPM_P1;HPM_P2
2024/01/21 00:01:32;;;;;;;39.13;19.60;;;;;;;-2.41;100.00;100930.59;5017774;28;20029;-71
2024/01/21 00:03:58;;;;;;;38.65;20.17;;;;;;;-2.38;100.00;100903.00;5050583;28;20449;-71
2024/01/21 00:06:23;;;;;;;36.38;19.38;;;;;;;-2.36;100.00;100915.38;5000737;28;20087;-71
2024/01/21 00:08:49;;;;;;;39.15;19.23;;;;;;;-2.34;100.00;100942.34;5015300;28;20029;-71
2024/01/21 00:11:14;;;;;;;40.00;19.80;;;;;;;-2.28;100.00;100938.88;5033715;28;20033;-71
2024/01/21 00:13:40;;;;;;;36.10;18.73;;;;;;;-2.29;100.00;100926.28;4999243;28;20030;-71
2024/01/21 00:16:05;;;;;;;35.65;19.25;;;;;;;-2.27;100.00;100921.50;5017404;28;20029;-71
2024/01/21 00:18:31;;;;;;;40.80;19.20;;;;;;;-2.24;100.00;100929.25;4998939;28;20108;-71
2024/01/21 00:20:56;;;;;;;40.53;19.33;;;;;;;-2.22;100.00;100938.06;5004401;28;20033;-71
2024/01/21 00:23:22;;;;;;;40.42;20.23;;;;;;;-2.16;100.00;100925.53;5000801;28;20057;-71
2024/01/21 00:25:47;;;;;;;43.58;19.88;;;;;;;-2.16;100.00;100947.31;5066641;28;20081;-71
2024/01/21 00:28:13;;;;;;;38.08;18.92;;;;;;;-2.12;100.00;100949.41;4986386;28;20026;-71
2024/01/21 00:30:38;;;;;;;33.80;18.23;;;;;;;-2.11;100.00;100951.09;4997162;28;20114;-71
2024/01/21 00:33:04;;;;;;;39.83;19.65;;;;;;;-2.08;100.00;100930.81;5012034;28;20487;-71
2024/01/21 00:35:29;;;;;;;37.30;19.33;;;;;;;-2.04;100.00;100938.38;5000408;28;20022;-71
2024/01/21 00:37:57;;;;;;;35.20;18.30;;;;;;;-2.03;100.00;100937.34;5002298;28;20025;-71
2024/01/21 00:40:22;;;;;;;35.45;19.00;;;;;;;-1.99;100.00;100943.22;5033830;28;20029;-71
2024/01/21 00:42:48;;;;;;;35.38;19.52;;;;;;;-1.97;100.00;100971.09;5025650;28;20025;-71
2024/01/21 00:45:13;;;;;;;39.17;19.88;;;;;;;-1.91;100.00;101019.28;5000859;28;20022;-71
2024/01/21 00:47:39;;;;;;;37.90;17.70;;;;;;;-1.86;100.00;101021.41;5052546;28;20029;-71
2024/01/21 00:50:04;;;;;;;38.78;18.77;;;;;;;-1.84;100.00;101012.00;5003974;28;20426;-71
2024/01/21 00:52:30;;;;;;;35.92;18.35;;;;;;;-1.81;100.00;101024.38;5040688;28;20033;-71
2024/01/21 00:54:55;;;;;;;34.97;17.52;;;;;;;-1.76;100.00;101032.75;5020304;28;20176;-71
2024/01/21 00:57:21;;;;;;;36.20;19.60;;;;;;;-1.73;100.00;101054.16;5019922;28;20509;-71
2024/01/21 00:59:47;;;;;;;36.72;19.27;;;;;;;-1.70;100.00;101053.78;5053092;28;20036;-71
2024/01/21 01:02:13;;;;;;;33.60;17.52;;;;;;;-1.68;100.00;101056.28;5017625;28;20026;-71
2024/01/21 01:04:38;;;;;;;36.80;18.13;;;;;;;-1.66;100.00;101041.44;5020157;28;20036;-71
2024/01/21 01:07:03;;;;;;;31.83;16.58;;;;;;;-1.65;100.00;101045.81;5036076;28;20026;-71
2024/01/21 01:09:29;;;;;;;34.90;17.67;;;;;;;-1.61;100.00;101025.31;5019998;28;20040;-71
2024/01/21 01:11:55;;;;;;;36.30;19.40;;;;;;;-1.57;100.00;101012.97;5019879;28;20030;-71
2024/01/21 01:14:20;;;;;;;35.40;18.95;;;;;;;-1.58;100.00;101013.19;5036562;28;20037;-71
2024/01/21 01:16:45;;;;;;;34.67;18.42;;;;;;;-1.56;100.00;101013.84;5037542;28;20052;-71
2024/01/21 01:19:11;;;;;;;36.28;18.27;;;;;;;-1.54;100.00;101005.44;5069813;28;20037;-71
2024/01/21 01:21:36;;;;;;;32.20;17.45;;;;;;;-1.54;100.00;101008.16;5004988;28;20045;-71
2024/01/21 01:24:02;;;;;;;34.63;18.02;;;;;;;-1.52;100.00;101008.81;5033483;28;20461;-71
2024/01/21 01:26:28;;;;;;;33.90;17.65;;;;;;;-1.48;100.00;101010.06;4999344;28;20093;-71
2024/01/21 01:28:53;;;;;;;34.50;16.98;;;;;;;-1.47;100.00;101012.63;5016373;28;20052;-71
2024/01/21 01:31:19;;;;;;;36.90;18.65;;;;;;;-1.46;100.00;101011.56;5019626;28;20411;-71
2024/01/21 01:33:45;;;;;;;36.10;18.52;;;;;;;-1.44;100.00;101009.47;5049662;28;20056;-71
2024/01/21 01:36:10;;;;;;;31.65;17.83;;;;;;;-1.41;100.00;101006.34;5019343;28;20486;-71
2024/01/21 01:38:36;;;;;;;35.95;19.80;;;;;;;-1.40;100.00;100983.50;5032850;28;20042;-71
2024/01/21 01:41:02;;;;;;;39.88;18.95;;;;;;;-1.38;100.00;100975.13;5031560;28;20120;-71
2024/01/21 01:43:27;;;;;;;39.28;18.77;;;;;;;-1.32;100.00;100968.84;5003266;28;20395;-71
2024/01/21 01:45:53;;;;;;;34.17;18.00;;;;;;;-1.33;100.00;100967.19;5007994;28;20026;-71
2024/01/21 01:48:19;;;;;;;35.45;19.08;;;;;;;-1.30;100.00;100965.94;5015840;28;20030;-71
2024/01/21 01:50:45;;;;;;;38.22;19.25;;;;;;;-1.27;100.00;100955.47;5002934;28;20390;-71
2024/01/21 01:53:11;;;;;;;35.03;18.50;;;;;;;-1.28;100.00;100970.16;4994546;28;20033;-71
2024/01/21 01:55:36;;;;;;;35.13;18.00;;;;;;;-1.23;100.00;100973.06;5002939;28;20449;-71
2024/01/21 01:58:02;;;;;;;37.88;18.27;;;;;;;-1.22;100.00;100969.31;4991774;28;20394;-72
2024/01/21 02:00:28;;;;;;;33.95;19.20;;;;;;;-1.22;100.00;100972.03;5019119;28;20104;-71
2024/01/21 02:02:53;;;;;;;37.35;19.20;;;;;;;-1.20;100.00;100975.41;5035606;28;20043;-71
2024/01/21 02:05:19;;;;;;;38.33;19.92;;;;;;;-1.15;100.00;100964.72;5051816;28;20819;-71
2024/01/21 02:07:44;;;;;;;37.33;18.67;;;;;;;-1.15;100.00;100963.88;5035431;28;20025;-71
2024/01/21 02:10:10;;;;;;;35.95;19.35;;;;;;;-1.14;100.00;100955.50;5052013;28;20037;-71
2024/01/21 02:12:40;;;;;;;36.15;19.25;;;;;;;-1.10;100.00;100953.19;5018955;28;20112;-71
2024/01/21 02:15:06;;;;;;;33.05;18.45;;;;;;;-1.07;100.00;100954.66;5035553;28;20516;-72
2024/01/21 02:17:31;;;;;;;38.05;18.25;;;;;;;-1.07;100.00;100944.59;5002315;28;20114;-72
2024/01/21 02:19:57;;;;;;;39.13;20.10;;;;;;;-1.03;100.00;100931.38;5031812;28;20479;-72
2024/01/21 02:22:24;;;;;;;32.55;18.75;;;;;;;-1.05;100.00;100926.16;5003986;28;20061;-72
2024/01/21 02:24:49;;;;;;;36.72;18.65;;;;;;;-1.04;100.00;100906.03;5051582;28;20032;-72
2024/01/21 02:27:14;;;;;;;37.75;18.77;;;;;;;-0.99;100.00;100897.22;5002541;28;20034;-72
2024/01/21 02:29:40;;;;;;;33.85;18.40;;;;;;;-0.99;100.00;100902.69;5032312;28;20514;-71
2024/01/21 02:32:06;;;;;;;37.58;19.52;;;;;;;-0.97;100.00;100889.69;5016076;28;20034;-72
2024/01/21 02:34:31;;;;;;;33.53;17.90;;;;;;;-0.95;100.00;100932.06;5026201;28;20769;-72
2024/01/21 02:36:57;;;;;;;41.40;18.17;;;;;;;-0.95;100.00;100899.34;5018167;28;20034;-72
2024/01/21 02:39:22;;;;;;;42.08;19.10;;;;;;;-0.91;100.00;100845.22;5018329;28;20501;-72
2024/01/21 02:41:47;;;;;;;35.40;18.55;;;;;;;-0.90;100.00;100781.44;5025439;28;20484;-72
2024/01/21 02:44:13;;;;;;;33.72;17.88;;;;;;;-0.83;100.00;100819.63;5001678;28;20032;-72
2024/01/21 02:46:38;;;;;;;38.35;19.63;;;;;;;-0.81;100.00;100900.16;5002079;28;20098;-71
2024/01/21 02:49:04;;;;;;;36.58;18.67;;;;;;;-0.77;100.00;100900.59;5051195;28;20030;-71
2024/01/21 02:51:30;;;;;;;35.22;17.88;;;;;;;-0.75;100.00;100914.88;5053660;28;20036;-71
2024/01/21 02:53:56;;;;;;;36.88;18.40;;;;;;;-0.74;100.00;100920.09;5002312;28;20049;-71
2024/01/21 02:56:22;;;;;;;37.58;18.88;;;;;;;-0.72;100.00;100923.47;4998488;28;20061;-71
2024/01/21 02:58:50;;;;;;;36.20;19.88;;;;;;;-0.71;100.00;100910.66;5015619;28;20045;-71
2024/01/21 03:01:16;;;;;;;32.60;18.42;;;;;;;-0.70;100.00;100921.38;5034134;28;20109;-71
2024/01/21 03:03:41;;;;;;;39.40;18.98;;;;;;;-0.66;100.00;100920.94;5067752;28;20041;-71
2024/01/21 03:06:07;;;;;;;34.08;19.00;;;;;;;-0.64;100.00;100922.41;5035562;28;20025;-71
2024/01/21 03:08:32;;;;;;;34.33;18.85;;;;;;;-0.61;100.00;100926.59;5017844;28;20021;-71
2024/01/21 03:10:58;;;;;;;34.83;18.58;;;;;;;-0.60;100.00;100939.19;5034579;28;20029;-71
2024/01/21 03:13:23;;;;;;;38.08;18.80;;;;;;;-0.57;100.00;100936.88;5034400;28;20052;-71
2024/01/21 03:15:49;;;;;;;35.72;19.15;;;;;;;-0.54;100.00;100938.34;5018008;28;20045;-71
2024/01/21 03:18:14;;;;;;;32.13;18.48;;;;;;;-0.55;100.00;100942.13;4985364;28;20038;-71
2024/01/21 03:20:40;;;;;;;40.92;18.73;;;;;;;-0.52;100.00;100930.81;5017495;28;20034;-71
2024/01/21 03:23:05;;;;;;;38.13;18.52;;;;;;;-0.50;100.00;100939.63;5004822;28;20048;-71
2024/01/21 03:25:31;;;;;;;34.33;17.70;;;;;;;-0.46;100.00;100952.63;5001654;28;20029;-71
2024/01/21 03:27:56;;;;;;;37.90;18.67;;;;;;;-0.43;100.00;100939.59;5001358;28;20033;-71
2024/01/21 03:30:22;;;;;;;36.45;17.00;;;;;;;-0.40;100.00;100944.63;5001395;28;20030;-71
2024/01/21 03:32:47;;;;;;;29.17;17.45;;;;;;;-0.37;100.00;100938.75;5013985;28;20037;-71
2024/01/21 03:35:12;;;;;;;36.88;19.38;;;;;;;-0.34;100.00;100939.16;4995333;28;20042;-71
2024/01/21 03:37:38;;;;;;;35.67;18.55;;;;;;;-0.29;100.00;100925.72;5030049;28;20036;-71
2024/01/21 03:40:05;;;;;;;34.13;17.40;;;;;;;-0.26;100.00;100933.47;5033344;28;20029;-71
2024/01/21 03:42:31;;;;;;;33.42;18.42;;;;;;;-0.23;100.00;100930.31;5031862;28;20069;-71
2024/01/21 03:44:56;;;;;;;36.95;17.65;;;;;;;-0.18;100.00;100918.78;5030467;28;20037;-71
2024/01/21 03:47:22;;;;;;;30.52;17.90;;;;;;;-0.18;100.00;100924.25;5015441;28;20044;-71
2024/01/21 03:49:47;;;;;;;33.20;18.52;;;;;;;-0.17;100.00;100911.44;5012629;28;20034;-71
2024/01/21 03:52:13;;;;;;;31.60;17.08;;;;;;;-0.12;100.00;100906.16;5015483;28;20386;-71
2024/01/21 03:54:38;;;;;;;33.90;17.10;;;;;;;-0.10;100.00;100909.53;5014126;28;20060;-71
2024/01/21 03:57:04;;;;;;;32.33;17.38;;;;;;;-0.06;100.00;100921.69;5014127;28;20029;-71
2024/01/21 03:59:29;;;;;;;32.78;18.40;;;;;;;-0.06;100.00;100927.97;5013338;28;20031;-71
2024/01/21 04:01:55;;;;;;;34.15;16.83;;;;;;;-0.05;100.00;100916.03;5029548;28;20034;-71
2024/01/21 04:04:20;;;;;;;35.33;17.55;;;;;;;-0.02;100.00;100909.31;5029674;28;20498;-71
2024/01/21 04:06:46;;;;;;;31.65;17.38;;;;;;;-0.04;100.00;100911.41;5015193;28;20026;-71
2024/01/21 04:09:15;;;;;;;33.88;16.50;;;;;;;-0.01;100.00;100910.97;4996898;28;20048;-71
2024/01/21 04:11:42;;;;;;;38.00;19.00;;;;;;;0.01;100.00;100908.88;4998856;28;20554;-71
2024/01/21 04:14:08;;;;;;;32.65;16.98;;;;;;;0.00;100.00;100912.66;5032949;28;20041;-71
2024/01/21 04:16:33;;;;;;;30.60;16.48;;;;;;;0.03;100.00;100909.50;5034830;28;20045;-71
2024/01/21 04:18:59;;;;;;;34.15;17.40;;;;;;;0.05;100.00;100907.38;5001997;28;20036;-71
2024/01/21 04:21:25;;;;;;;29.02;16.27;;;;;;;0.04;100.00;100902.13;5033795;28;20041;-71
2024/01/21 04:23:50;;;;;;;33.35;17.52;;;;;;;0.04;100.00;100902.13;5033004;28;20079;-71
2024/01/21 04:26:15;;;;;;;33.42;17.10;;;;;;;0.09;100.00;100914.09;5032926;28;20044;-71
2024/01/21 04:28:41;;;;;;;33.35;17.65;;;;;;;0.09;100.00;100911.38;5049627;28;20367;-71
2024/01/21 04:31:06;;;;;;;30.50;17.27;;;;;;;0.08;100.00;100898.75;5001420;28;20042;-71
2024/01/21 04:33:32;;;;;;;32.78;15.45;;;;;;;0.10;100.00;100895.81;5019569;28;20042;-71
2024/01/21 04:35:58;;;;;;;30.58;16.08;;;;;;;0.08;100.00;100896.00;5018536;28;20029;-71
2024/01/21 04:38:25;;;;;;;35.05;16.30;;;;;;;0.10;100.00;100896.66;5036931;28;20501;-71
2024/01/21 04:40:52;;;;;;;31.55;15.70;;;;;;;0.10;100.00;100891.19;5025007;28;20033;-72
2024/01/21 04:43:18;;;;;;;30.48;16.45;;;;;;;0.11;100.00;100892.00;5020432;28;20124;-71
2024/01/21 04:45:43;;;;;;;35.33;15.65;;;;;;;0.11;100.00;100892.88;4997298;28;20030;-71
2024/01/21 04:48:08;;;;;;;28.10;14.75;;;;;;;0.10;100.00;100882.16;5034207;28;20026;-71
2024/01/21 04:50:34;;;;;;;35.08;16.80;;;;;;;0.15;100.00;100885.09;5019034;28;20037;-71
2024/01/21 04:52:59;;;;;;;31.08;14.93;;;;;;;0.17;100.00;100892.00;5035507;28;20041;-71
2024/01/21 04:55:25;;;;;;;29.48;16.35;;;;;;;0.20;100.00;100898.94;5033908;28;20041;-71
2024/01/21 04:57:50;;;;;;;32.47;15.52;;;;;;;0.24;100.00;100907.53;5032763;28;20486;-71
2024/01/21 05:00:16;;;;;;;31.92;15.18;;;;;;;0.27;100.00;100898.91;5000966;28;20044;-71
2024/01/21 05:02:42;;;;;;;25.30;14.38;;;;;;;0.32;100.00;100904.56;5001128;28;20116;-71
2024/01/21 05:05:07;;;;;;;31.30;15.50;;;;;;;0.34;100.00;100910.66;5049444;28;20029;-71
2024/01/21 05:07:33;;;;;;;30.70;14.98;;;;;;;0.35;100.00;100899.47;5031115;28;20041;-71
2024/01/21 05:09:58;;;;;;;29.83;14.98;;;;;;;0.41;100.00;100908.72;5018589;28;20029;-71
2024/01/21 05:12:23;;;;;;;32.67;15.10;;;;;;;0.43;100.00;100917.53;5001443;28;20067;-71
2024/01/21 05:14:49;;;;;;;32.05;15.00;;;;;;;0.45;100.00;100912.69;5017293;28;20034;-71
2024/01/21 05:17:15;;;;;;;32.72;15.73;;;;;;;0.48;100.00;100915.00;5035137;28;20057;-71
2024/01/21 05:19:40;;;;;;;30.15;14.35;;;;;;;0.52;100.00;100899.81;5068497;28;20056;-71
2024/01/21 05:22:05;;;;;;;33.40;15.25;;;;;;;0.54;100.00;100903.19;5031767;28;20042;-71
2024/01/21 05:24:34;;;;;;;28.65;15.57;;;;;;;0.55;100.00;100891.19;5018880;28;20026;-71
2024/01/21 05:27:00;;;;;;;26.58;15.15;;;;;;;0.57;100.00;100883.59;5016702;28;20364;-71
2024/01/21 05:29:25;;;;;;;29.63;15.07;;;;;;;0.61;100.00;100893.06;5031899;28;20037;-71
2024/01/21 05:31:51;;;;;;;29.48;15.20;;;;;;;0.63;100.00;100890.94;4991427;28;20493;-71
2024/01/21 05:34:16;;;;;;;28.50;14.77;;;;;;;0.68;100.00;100881.25;5003449;28;20037;-71
2024/01/21 05:36:42;;;;;;;30.10;16.27;;;;;;;0.70;100.00;100882.69;5003119;28;20037;-71
2024/01/21 05:39:07;;;;;;;31.30;15.38;;;;;;;0.72;100.00;100883.31;5019676;28;20029;-71
2024/01/21 05:41:33;;;;;;;28.67;15.05;;;;;;;0.76;100.00;100889.19;5019995;28;20084;-71
2024/01/21 05:43:58;;;;;;;38.53;17.67;;;;;;;0.83;100.00;100901.72;5052443;28;20026;-71
2024/01/21 05:46:24;;;;;;;28.65;14.68;;;;;;;0.82;100.00;100889.13;5011418;28;20393;-71
2024/01/21 05:48:49;;;;;;;29.80;15.38;;;;;;;0.88;100.00;100903.81;5019123;28;20025;-71
2024/01/21 05:51:15;;;;;;;26.35;15.10;;;;;;;0.88;100.00;100917.50;5019616;28;20017;-71
2024/01/21 05:53:41;;;;;;;30.45;15.23;;;;;;;0.90;100.00;100909.91;5004947;28;20033;-71
2024/01/21 05:56:07;;;;;;;30.85;15.50;;;;;;;0.93;100.00;100904.00;5019316;28;20049;-71
2024/01/21 05:58:32;;;;;;;30.20;16.00;;;;;;;0.94;100.00;100911.13;5052230;28;20104;-71
2024/01/21 06:00:58;;;;;;;30.85;15.35;;;;;;;0.97;100.00;100913.44;5035360;28;20087;-71
2024/01/21 06:03:23;;;;;;;27.83;15.73;;;;;;;1.00;100.00;100918.44;5052145;28;20517;-71
2024/01/21 06:05:49;;;;;;;29.73;16.00;;;;;;;1.01;100.00;100911.94;4991058;28;20473;-71
2024/01/21 06:08:14;;;;;;;29.30;15.05;;;;;;;1.04;100.00;100913.41;5002664;28;20056;-71
2024/01/21 06:10:40;;;;;;;26.20;14.95;;;;;;;1.05;100.00;100910.44;5018916;28;20474;-71
2024/01/21 06:13:05;;;;;;;25.85;14.48;;;;;;;1.08;100.00;100925.56;5002750;28;20432;-71
2024/01/21 06:15:31;;;;;;;29.85;14.88;;;;;;;1.07;100.00;100941.13;5018937;28;20040;-71
2024/01/21 06:17:57;;;;;;;31.33;15.55;;;;;;;1.11;100.00;100941.53;5035093;28;20037;-71
2024/01/21 06:20:22;;;;;;;26.83;15.27;;;;;;;1.14;100.00;100940.25;5018557;28;20049;-71
2024/01/21 06:22:48;;;;;;;27.10;14.98;;;;;;;1.14;100.00;100952.03;5004307;28;20034;-71
2024/01/21 06:25:13;;;;;;;25.33;15.07;;;;;;;1.14;100.00;100962.97;5035091;28;20036;-71
2024/01/21 06:27:38;;;;;;;25.38;14.88;;;;;;;1.18;100.00;100963.38;4986019;28;20033;-71
2024/01/21 06:30:12;;;;;;;28.52;15.25;;;;;;;1.21;100.00;100962.94;4991387;28;20026;-71
2024/01/21 06:32:37;;;;;;;26.13;14.43;;;;;;;1.22;100.00;100957.22;5032896;28;20504;-71
2024/01/21 06:35:03;;;;;;;26.95;14.57;;;;;;;1.23;100.00;100966.31;4985727;28;20025;-71
2024/01/21 06:37:28;;;;;;;24.00;14.35;;;;;;;1.24;100.00;100974.28;5002111;28;20029;-71
2024/01/21 06:39:54;;;;;;;24.50;14.38;;;;;;;1.26;100.00;100971.31;5023319;28;20469;-71
2024/01/21 06:42:19;;;;;;;30.08;15.90;;;;;;;1.27;100.00;100967.53;5025171;28;20044;-71
2024/01/21 06:44:44;;;;;;;23.20;13.38;;;;;;;1.28;100.00;100975.53;5015102;28;20018;-72
2024/01/21 06:47:10;;;;;;;26.52;14.38;;;;;;;1.30;100.00;100967.06;4997319;28;20029;-71
2024/01/21 06:49:35;;;;;;;26.95;14.00;;;;;;;1.31;100.00;100972.34;5001859;28;20037;-71
2024/01/21 06:52:01;;;;;;;26.17;15.05;;;;;;;1.33;100.00;100977.56;5053884;28;20655;-71
2024/01/21 06:54:27;;;;;;;26.00;14.80;;;;;;;1.35;100.00;100991.88;5018358;28;20041;-71
2024/01/21 06:56:52;;;;;;;27.30;14.32;;;;;;;1.40;100.00;100999.44;5067764;28;20104;-71
2024/01/21 06:59:17;;;;;;;27.30;15.43;;;;;;;1.38;100.00;100999.66;5001996;28;20033;-71
2024/01/21 07:01:43;;;;;;;28.38;14.93;;;;;;;1.41;100.00;101004.69;5051277;28;20033;-71
2024/01/21 07:04:09;;;;;;;26.67;15.38;;;;;;;1.46;100.00;101021.28;5034514;28;20092;-71
2024/01/21 07:06:34;;;;;;;27.15;14.85;;;;;;;1.48;100.00;101021.91;5034298;28;20033;-71
2024/01/21 07:09:00;;;;;;;23.30;14.63;;;;;;;1.48;100.00;101019.16;5035623;28;20033;-71
2024/01/21 07:11:25;;;;;;;28.95;17.38;;;;;;;1.53;100.00;101026.69;5051075;28;20521;-71
2024/01/21 07:13:51;;;;;;;27.27;15.68;;;;;;;1.49;100.00;101031.78;5018294;28;20045;-71
2024/01/21 07:16:16;;;;;;;27.80;15.80;;;;;;;1.49;100.00;101031.78;5001598;28;20104;-71
2024/01/21 07:18:42;;;;;;;26.50;15.38;;;;;;;1.53;100.00;101021.22;4989892;28;20021;-72
2024/01/21 07:21:07;;;;;;;22.67;14.10;;;;;;;1.50;100.00;101027.13;5035212;28;20437;-71
2024/01/21 07:23:33;;;;;;;25.52;15.48;;;;;;;1.54;100.00;101037.44;5003102;28;20045;-71
2024/01/21 07:25:58;;;;;;;23.20;15.07;;;;;;;1.59;100.00;101044.13;5004627;28;20083;-71
2024/01/21 07:28:23;;;;;;;26.52;15.40;;;;;;;1.56;100.00;101038.06;5001438;28;20383;-71
2024/01/21 07:30:49;;;;;;;27.33;14.98;;;;;;;1.55;100.00;101036.38;5001268;28;20489;-71
2024/01/21 07:33:14;;;;;;;23.30;14.77;;;;;;;1.57;100.00;101044.38;5014219;28;20030;-71
2024/01/21 07:35:40;;;;;;;26.85;15.27;;;;;;;1.59;100.00;101047.72;5050455;28;20052;-71
2024/01/21 07:38:05;;;;;;;25.90;16.65;;;;;;;1.60;100.00;101046.66;4989727;28;20600;-71
2024/01/21 07:40:35;;;;;;;28.38;15.10;;;;;;;1.61;100.00;101039.28;5025023;28;20041;-72
2024/01/21 07:43:00;;;;;;;28.80;16.92;;;;;;;1.64;100.00;101028.72;5017539;28;20029;-72
2024/01/21 07:45:26;;;;;;;25.83;15.80;;;;;;;1.65;100.00;101019.47;5009231;28;20033;-71
2024/01/21 07:47:51;;;;;;;25.27;16.38;;;;;;;1.66;100.00;101007.44;5038109;28;20033;-71
2024/01/21 07:50:17;;;;;;;24.75;15.35;;;;;;;1.65;100.00;101032.31;5035175;28;20136;-71
2024/01/21 07:52:42;;;;;;;24.05;15.55;;;;;;;1.67;100.00;101044.72;5023269;28;20029;-71
2024/01/21 07:55:08;;;;;;;24.65;14.55;;;;;;;1.70;100.00;101047.03;4986236;28;20147;-71
2024/01/21 07:57:34;;;;;;;23.20;14.70;;;;;;;1.72;100.00;101071.44;5020525;28;20030;-71
2024/01/21 07:59:59;;;;;;;27.25;15.10;;;;;;;1.74;100.00;101080.25;5002651;28;20037;-71
2024/01/21 08:02:27;;;;;;;27.98;16.10;;;;;;;1.77;100.00;101082.56;5021621;28;20505;-71
2024/01/21 08:04:53;;;;;;;23.08;14.68;;;;;;;1.75;100.00;101069.06;5037596;28;20036;-71
2024/01/21 08:07:18;;;;;;;24.67;14.98;;;;;;;1.75;100.00;101071.81;5020813;28;20389;-71
2024/01/21 08:09:44;;;;;;;23.45;14.98;;;;;;;1.76;100.00;101076.25;5004992;28;20038;-71
2024/01/21 08:12:09;;;;;;;25.30;16.00;;;;;;;1.82;100.00;101081.91;5021366;28;20026;-71
2024/01/21 08:14:35;;;;;;;25.70;15.50;;;;;;;1.83;100.00;101083.56;5035548;28;20029;-71
2024/01/21 08:17:00;;;;;;;22.00;14.88;;;;;;;1.87;100.00;101082.91;5037958;28;20029;-71
2024/01/21 08:19:26;;;;;;;25.70;16.48;;;;;;;1.89;100.00;101079.94;5054276;28;20037;-71
2024/01/21 08:21:52;;;;;;;25.27;15.77;;;;;;;1.90;100.00;101074.25;5018650;28;20042;-71
2024/01/21 08:24:18;;;;;;;28.60;16.52;;;;;;;1.94;100.00;101082.84;5020551;28;20103;-71
2024/01/21 08:26:44;;;;;;;23.33;15.52;;;;;;;1.95;100.00;101090.84;5020966;28;20056;-71
2024/01/21 08:29:12;;;;;;;24.55;15.15;;;;;;;1.96;100.00;101097.16;4985710;28;20033;-71
2024/01/21 08:31:43;;;;;;;26.52;16.02;;;;;;;1.97;100.00;101098.84;5022282;28;20032;-71
2024/01/21 08:34:08;;;;;;;25.10;14.75;;;;;;;2.03;100.00;101108.06;5021784;28;20424;-71
2024/01/21 08:36:34;;;;;;;25.83;15.50;;;;;;;2.03;100.00;101121.75;5021414;28;20038;-71
2024/01/21 08:38:59;;;;;;;28.13;16.83;;;;;;;2.05;100.00;101136.09;5020188;28;20068;-71
2024/01/21 08:41:27;;;;;;;29.02;16.95;;;;;;;2.09;100.00;101140.03;5029679;28;20038;-71
2024/01/21 08:43:55;;;;;;;28.38;17.73;;;;;;;2.10;100.00;101152.72;5005282;28;20033;-71
2024/01/21 08:46:21;;;;;;;27.23;17.27;;;;;;;2.12;100.00;101161.56;5018560;28;20044;-71
2024/01/21 08:48:48;;;;;;;24.52;15.80;;;;;;;2.12;100.00;101158.81;5021525;28;20045;-71
2024/01/21 08:51:13;;;;;;;29.90;17.30;;;;;;;2.17;100.00;101156.22;5037939;28;20087;-71
2024/01/21 08:53:42;;;;;;;29.45;17.85;;;;;;;2.22;100.00;101154.47;5023951;28;20037;-71
2024/01/21 08:56:08;;;;;;;27.63;16.98;;;;;;;2.24;100.00;101160.59;5037855;28;20030;-71
2024/01/21 08:58:34;;;;;;;30.33;17.55;;;;;;;2.28;100.00;101154.66;5004012;28;20064;-71
2024/01/21 09:01:00;;;;;;;31.27;17.73;;;;;;;2.30;100.00;101153.38;5021450;28;20038;-71
2024/01/21 09:03:26;;;;;;;32.83;17.17;;;;;;;2.36;100.00;101155.22;5036638;28;20545;-71
2024/01/21 09:05:54;;;;;;;29.98;18.05;;;;;;;2.37;100.00;101159.66;5021155;28;20037;-71
2024/01/21 09:08:21;;;;;;;34.25;18.60;;;;;;;2.43;100.00;101150.53;5005733;28;20041;-71
2024/01/21 09:10:47;;;;;;;33.13;18.30;;;;;;;2.42;100.00;101145.25;5021302;28;20068;-71
2024/01/21 09:13:19;;;;;;;28.95;17.33;;;;;;;2.44;100.00;101152.19;5021306;28;20033;-71
2024/01/21 09:15:48;;;;;;;30.25;17.30;;;;;;;2.50;100.00;101141.41;5021676;28;20037;-71
2024/01/21 09:18:13;;;;;;;30.73;16.58;;;;;;;2.52;100.00;101122.81;5037751;28;20061;-71
2024/01/21 09:20:42;;;;;;;32.08;18.95;;;;;;;2.57;100.00;101128.47;4996058;28;20048;-71
2024/01/21 09:23:07;;;;;;;31.77;18.70;;;;;;;2.59;100.00;101123.59;5036826;28;20459;-71
2024/01/21 09:25:44;;;;;;;30.08;18.02;;;;;;;2.65;100.00;101122.69;4992496;28;20041;-71
2024/01/21 09:28:11;;;;;;;32.13;18.70;;;;;;;2.69;100.00;101113.78;5021159;28;20044;-71
2024/01/21 09:30:45;;;;;;;31.73;18.50;;;;;;;2.76;100.00;101118.34;5053665;28;20104;-71
2024/01/21 09:33:11;;;;;;;34.03;19.48;;;;;;;2.79;100.00;101126.97;5021977;28;20108;-71
2024/01/21 09:35:40;;;;;;;31.10;18.55;;;;;;;2.85;100.00;101139.78;5053604;28;20114;-71
2024/01/21 09:38:06;;;;;;;33.13;19.08;;;;;;;2.86;100.00;101159.81;5018032;28;20033;-71
2024/01/21 09:40:38;;;;;;;35.70;19.40;;;;;;;2.90;100.00;101175.59;5034263;28;20038;-71
2024/01/21 09:43:04;;;;;;;32.30;18.60;;;;;;;2.94;100.00;101191.63;5049492;28;20030;-71
2024/01/21 09:45:34;;;;;;;34.00;19.15;;;;;;;2.98;100.00;101201.91;5028375;28;20147;-71
2024/01/21 09:48:00;;;;;;;27.35;17.05;;;;;;;2.99;100.00;101194.53;5017615;28;20037;-71
2024/01/21 09:50:26;;;;;;;32.25;18.63;;;;;;;3.02;100.00;101196.81;5000988;28;20025;-71
2024/01/21 09:53:12;;;;;;;29.23;18.23;;;;;;;3.04;100.00;101197.44;5020486;28;20030;-71
2024/01/21 09:55:38;;;;;;;31.48;18.15;;;;;;;3.06;100.00;101189.78;5021799;28;20083;-71
2024/01/21 09:58:06;;;;;;;29.63;17.42;;;;;;;3.14;100.00;101181.25;5016569;28;20041;-71
2024/01/21 10:00:37;;;;;;;27.73;17.25;;;;;;;3.14;100.00;101178.50;5033637;28;20037;-71
2024/01/21 10:03:03;;;;;;;28.73;16.88;;;;;;;3.20;100.00;101171.25;5019683;28;20100;-71
2024/01/21 10:05:29;;;;;;;32.25;17.40;;;;;;;3.24;100.00;101175.25;5034996;28;20101;-71
2024/01/21 10:07:55;;;;;;;33.03;18.13;;;;;;;3.25;100.00;101176.91;5002819;28;20087;-71
2024/01/21 10:10:20;;;;;;;32.88;17.70;;;;;;;3.31;100.00;101178.72;5017572;28;20063;-71
2024/01/21 10:12:46;;;;;;;32.25;18.45;;;;;;;3.35;100.00;101169.81;5036226;28;20033;-72
2024/01/21 10:15:13;;;;;;;29.45;16.63;;;;;;;3.40;100.00;101179.25;5037204;28;20394;-71
2024/01/21 10:17:38;;;;;;;26.08;17.30;;;;;;;3.44;100.00;101180.47;5051900;28;20104;-71
2024/01/21 10:20:04;;;;;;;31.27;17.00;;;;;;;3.51;100.00;101186.72;5002183;28;20037;-72
2024/01/21 10:22:30;;;;;;;29.95;16.40;;;;;;;3.55;100.00;101191.53;5051868;28;20120;-72
2024/01/21 10:24:58;;;;;;;33.63;16.73;;;;;;;3.61;100.00;101200.75;5034881;28;20025;-72
2024/01/21 10:27:23;;;;;;;31.17;17.13;;;;;;;3.66;100.00;101200.91;5017890;28;20032;-71
2024/01/21 10:29:49;;;;;;;31.45;17.63;;;;;;;3.69;100.00;101192.19;5002408;28;20033;-72
2024/01/21 10:32:15;;;;;;;29.55;17.92;;;;;;;3.78;100.00;101192.69;5032273;28;20363;-71
2024/01/21 10:34:44;;;;;;;27.65;17.15;;;;;;;3.85;100.00;101192.63;5002203;28;20033;-71
2024/01/21 10:37:09;;;;;;;34.38;18.05;;;;;;;3.91;100.00;101206.25;5067814;28;20025;-71
2024/01/21 10:39:36;;;;;;;30.48;17.73;;;;;;;3.97;100.00;101210.00;5019962;28;20041;-71
2024/01/21 10:42:01;;;;;;;31.35;17.20;;;;;;;4.01;100.00;101192.81;5040383;28;20371;-71
2024/01/21 10:44:27;;;;;;;33.58;17.92;;;;;;;4.13;100.00;101189.25;5001113;28;20029;-71
2024/01/21 10:46:53;;;;;;;31.52;18.30;;;;;;;4.16;100.00;101197.88;4995111;28;20068;-72
2024/01/21 10:49:19;;;;;;;33.28;17.70;;;;;;;4.18;100.00;101212.22;5051334;28;20477;-71
2024/01/21 10:51:44;;;;;;;35.05;18.23;;;;;;;4.25;100.00;101215.69;4988354;28;20032;-71
2024/01/21 10:54:10;;;;;;;35.50;18.48;;;;;;;4.31;100.00;101219.41;5001310;28;20026;-71
2024/01/21 10:56:35;;;;;;;34.70;19.08;;;;;;;4.33;100.00;101219.19;5051379;28;20029;-71
2024/01/21 10:59:01;;;;;;;35.13;19.63;;;;;;;4.38;100.00;101219.34;5034310;28;20030;-71
2024/01/21 11:01:26;;;;;;;33.63;19.38;;;;;;;4.40;100.00;101219.91;5051428;28;20025;-71